Time;durP1;ratioP1;P1;durP2;ratioP2;P2;SDS_P1;SDS_P2;PMS_P1;PMS_P2;Temp;Humidity;BMP_temperature;BMP_pressure;BME280_temperature;BME280_humidity;BME280_pressure;Samples;Min_cycle;Max_cycle;Signal;HPM_P1;HPM_P2
2022/02/27 00:00:38;;;;;;;40.17;18.02;;;;;;;4.80;86.31;100669.50;5027771;28;20057;-72
2022/02/27 00:03:04;;;;;;;38.92;18.90;;;;;;;4.73;86.07;100676.09;5035877;28;20030;-72
2022/02/27 00:05:29;;;;;;;43.45;18.50;;;;;;;4.69;86.86;100676.41;5025388;28;20206;-73
2022/02/27 00:07:55;;;;;;;35.90;18.05;;;;;;;4.89;85.90;100672.44;5029223;28;20037;-73
2022/02/27 00:10:21;;;;;;;43.97;17.88;;;;;;;5.01;84.48;100659.34;5027681;28;20382;-73
2022/02/27 00:12:48;;;;;;;43.03;17.60;;;;;;;4.95;85.08;100651.88;5007723;28;20053;-72
2022/02/27 00:15:13;;;;;;;40.67;17.38;;;;;;;4.88;85.30;100650.59;5028351;28;20041;-72
2022/02/27 00:17:39;;;;;;;46.55;18.92;;;;;;;4.80;85.83;100643.25;5026719;28;20041;-73
2022/02/27 00:20:06;;;;;;;39.08;18.13;;;;;;;4.59;88.03;100634.19;5026500;28;20033;-73
2022/02/27 00:22:32;;;;;;;41.10;18.37;;;;;;;4.45;89.87;100629.03;5026968;28;20092;-73
2022/02/27 00:24:58;;;;;;;46.93;18.80;;;;;;;4.37;89.67;100618.22;5026685;28;20042;-73
2022/02/27 00:27:23;;;;;;;45.58;20.65;;;;;;;4.42;89.78;100616.97;5019657;28;20204;-72
2022/02/27 00:29:49;;;;;;;50.03;20.10;;;;;;;4.30;90.43;100609.91;5027866;28;20033;-72
2022/02/27 00:32:14;;;;;;;46.70;18.97;;;;;;;4.22;90.62;100606.94;5027210;28;20030;-73
2022/02/27 00:34:40;;;;;;;45.63;19.20;;;;;;;4.31;90.13;100605.50;5024780;28;20053;-72
2022/02/27 00:37:05;;;;;;;39.93;19.10;;;;;;;4.39;90.29;100601.44;5029427;28;20048;-73
2022/02/27 00:39:31;;;;;;;49.67;20.50;;;;;;;4.29;90.37;100605.59;5025330;28;20034;-72
2022/02/27 00:41:56;;;;;;;43.50;20.20;;;;;;;4.49;89.88;100605.13;5026198;28;20258;-72
2022/02/27 00:44:22;;;;;;;43.70;19.05;;;;;;;4.58;89.66;100602.81;5027598;28;20386;-72
2022/02/27 00:46:47;;;;;;;40.38;18.83;;;;;;;4.72;88.22;100610.59;5025446;28;20059;-72
2022/02/27 00:49:13;;;;;;;38.43;18.50;;;;;;;4.97;86.66;100615.03;5026555;28;20238;-72
2022/02/27 00:51:38;;;;;;;53.17;21.83;;;;;;;4.99;85.33;100619.22;5027072;28;20033;-72
2022/02/27 00:54:04;;;;;;;46.20;19.83;;;;;;;5.15;83.13;100603.25;5025514;28;20085;-73
2022/02/27 00:56:29;;;;;;;44.13;19.05;;;;;;;5.37;81.07;100597.38;5027985;28;20041;-72
2022/02/27 00:58:54;;;;;;;42.20;18.98;;;;;;;5.32;80.68;100587.19;5007411;28;20018;-72
2022/02/27 01:01:20;;;;;;;44.35;19.88;;;;;;;5.11;81.86;100586.88;5025781;28;20214;-72
2022/02/27 01:03:46;;;;;;;48.53;20.17;;;;;;;4.99;82.98;100594.75;5027424;28;20041;-72
2022/02/27 01:06:12;;;;;;;43.20;20.67;;;;;;;4.95;84.07;100602.00;5025653;28;20365;-72
2022/02/27 01:08:38;;;;;;;44.17;20.57;;;;;;;5.13;82.93;100608.63;5026345;28;20025;-73
2022/02/27 01:11:03;;;;;;;45.72;19.15;;;;;;;5.19;82.42;100625.72;5017339;28;20048;-72
2022/02/27 01:13:29;;;;;;;39.38;18.30;;;;;;;5.34;81.70;100608.94;5026225;28;20222;-72
2022/02/27 01:15:54;;;;;;;41.93;17.60;;;;;;;5.27;81.41;100605.06;5027080;28;20025;-72
2022/02/27 01:18:19;;;;;;;39.22;18.88;;;;;;;5.03;83.02;100606.72;5026754;28;20069;-72
2022/02/27 01:20:45;;;;;;;41.67;18.65;;;;;;;5.05;82.59;100610.94;5024335;28;20034;-73
2022/02/27 01:23:11;;;;;;;46.22;19.83;;;;;;;4.97;82.85;100615.88;5028245;28;20100;-72
2022/02/27 01:25:37;;;;;;;43.35;19.88;;;;;;;5.00;83.46;100625.31;5024547;28;20041;-72
2022/02/27 01:28:03;;;;;;;45.80;21.85;;;;;;;5.02;83.53;100629.50;5026780;28;20026;-73
2022/02/27 01:30:28;;;;;;;50.00;23.48;;;;;;;5.16;83.29;100630.34;5009124;28;20033;-73
2022/02/27 01:32:54;;;;;;;56.45;23.63;;;;;;;5.26;82.74;100628.81;5026835;28;20040;-73
2022/02/27 01:35:19;;;;;;;52.70;22.35;;;;;;;4.94;83.00;100583.75;5024098;28;20018;-73
2022/02/27 01:37:45;;;;;;;41.42;19.70;;;;;;;4.95;84.51;100619.53;5029697;28;20137;-72
2022/02/27 01:40:11;;;;;;;44.60;20.15;;;;;;;4.93;85.11;100638.00;5032462;28;20029;-72
2022/02/27 01:42:37;;;;;;;41.87;19.67;;;;;;;4.94;85.25;100628.34;5032000;28;20037;-73
2022/02/27 01:45:04;;;;;;;44.92;20.63;;;;;;;4.66;86.80;100627.59;5033902;28;20099;-72
2022/02/27 01:47:30;;;;;;;43.00;18.38;;;;;;;4.37;88.58;100634.78;5033041;28;20092;-73
2022/02/27 01:49:55;;;;;;;40.00;18.98;;;;;;;4.27;89.85;100614.50;5031865;28;20044;-72
2022/02/27 01:52:21;;;;;;;42.88;18.67;;;;;;;4.06;91.80;100607.06;5033311;28;20192;-72
2022/02/27 01:54:47;;;;;;;45.77;20.83;;;;;;;4.11;92.97;100604.16;5032026;28;20332;-72
2022/02/27 01:57:12;;;;;;;43.87;18.90;;;;;;;4.20;91.92;100587.03;5030527;28;20060;-72
2022/02/27 01:59:39;;;;;;;49.33;20.70;;;;;;;4.07;93.10;100585.16;5034180;28;20547;-72
2022/02/27 02:02:05;;;;;;;44.40;18.90;;;;;;;4.06;93.79;100598.38;5031092;28;20247;-72
2022/02/27 02:04:32;;;;;;;47.20;19.80;;;;;;;4.01;93.87;100600.44;5031820;28;20055;-72
2022/02/27 02:07:01;;;;;;;45.53;20.25;;;;;;;4.09;94.01;100592.94;5033849;28;20041;-72
2022/02/27 02:09:26;;;;;;;46.23;19.60;;;;;;;4.12;93.38;100601.44;5029946;28;20025;-72
2022/02/27 02:11:52;;;;;;;43.53;19.83;;;;;;;3.98;93.25;100582.31;5031434;28;20266;-72
2022/02/27 02:14:18;;;;;;;40.63;18.30;;;;;;;3.90;93.93;100576.72;5032534;28;20041;-72
2022/02/27 02:16:45;;;;;;;48.40;19.17;;;;;;;3.83;94.24;100586.75;5031832;28;20181;-72
2022/02/27 02:19:12;;;;;;;47.50;18.40;;;;;;;3.94;93.77;100586.06;5030003;28;20032;-72
2022/02/27 02:21:42;;;;;;;43.67;19.37;;;;;;;3.82;94.64;100599.03;5032199;28;20037;-73
2022/02/27 02:24:08;;;;;;;48.30;19.90;;;;;;;3.91;94.28;100596.75;5032231;28;20025;-72
2022/02/27 02:26:36;;;;;;;47.50;19.23;;;;;;;3.79;95.00;100588.75;5031351;28;20045;-72
2022/02/27 02:29:05;;;;;;;47.83;18.33;;;;;;;3.87;94.41;100580.38;5032451;28;20026;-73
2022/02/27 02:31:34;;;;;;;40.57;18.30;;;;;;;3.92;92.93;100587.94;5033096;28;20072;-72
2022/02/27 02:34:05;;;;;;;38.70;17.67;;;;;;;3.90;92.43;100574.09;5031264;28;20045;-72
2022/02/27 02:36:32;;;;;;;36.77;17.97;;;;;;;3.90;91.89;100571.47;5031797;28;20045;-72
2022/02/27 02:39:02;;;;;;;43.07;17.90;;;;;;;3.92;91.37;100575.69;5032492;28;20113;-72
2022/02/27 02:41:28;;;;;;;38.07;16.80;;;;;;;3.86;90.96;100570.84;5032509;28;20060;-72
2022/02/27 02:43:53;;;;;;;39.83;16.80;;;;;;;3.83;91.23;100564.03;5031526;28;20030;-72
2022/02/27 02:46:19;;;;;;;37.17;15.93;;;;;;;3.90;91.14;100561.84;5032343;28;20041;-72
2022/02/27 02:48:44;;;;;;;36.93;15.63;;;;;;;3.81;90.67;100562.44;5033312;28;20032;-72
2022/02/27 02:51:09;;;;;;;33.90;15.30;;;;;;;3.90;90.36;100576.72;5025254;28;20038;-72
2022/02/27 02:53:39;;;;;;;42.38;17.48;;;;;;;4.00;90.43;100577.81;5028933;28;20058;-72
2022/02/27 02:56:06;;;;;;;36.93;14.90;;;;;;;3.97;89.87;100583.25;5028692;28;20106;-72
2022/02/27 02:58:39;;;;;;;35.00;15.20;;;;;;;4.07;89.08;100587.78;5028427;28;20040;-72
2022/02/27 03:01:05;;;;;;;38.90;15.77;;;;;;;4.09;89.21;100600.78;5026967;28;20038;-73
2022/02/27 03:03:31;;;;;;;36.13;16.43;;;;;;;4.13;89.29;100604.91;5030403;28;20417;-72
2022/02/27 03:05:56;;;;;;;34.53;16.37;;;;;;;4.23;88.90;100606.00;5028194;28;20034;-72
2022/02/27 03:08:22;;;;;;;36.00;14.97;;;;;;;4.12;88.76;100601.44;5029073;28;20026;-72
2022/02/27 03:10:47;;;;;;;35.70;16.17;;;;;;;4.16;89.19;100596.84;5028205;28;20033;-72
2022/02/27 03:13:12;;;;;;;33.73;15.37;;;;;;;3.96;90.40;100587.66;5027764;28;20049;-72
2022/02/27 03:15:38;;;;;;;34.30;15.63;;;;;;;4.16;89.39;100587.22;5010378;28;20013;-72
2022/02/27 03:18:04;;;;;;;34.90;17.87;;;;;;;4.03;90.06;100580.22;5030177;28;20061;-72
2022/02/27 03:20:30;;;;;;;36.90;15.47;;;;;;;4.08;88.48;100597.34;5029051;28;20247;-72
2022/02/27 03:22:56;;;;;;;35.30;15.83;;;;;;;3.85;89.08;100554.28;5028585;28;20025;-72
2022/02/27 03:25:22;;;;;;;40.07;17.23;;;;;;;4.14;89.52;100601.34;5010562;28;20072;-73
2022/02/27 03:27:48;;;;;;;34.38;15.18;;;;;;;4.30;88.37;100603.81;5010990;28;20026;-72
2022/02/27 03:30:14;;;;;;;36.13;16.63;;;;;;;4.39;87.93;100600.59;5028430;28;20038;-72
2022/02/27 03:32:44;;;;;;;31.80;14.70;;;;;;;4.35;86.96;100613.06;5029381;28;20365;-72
2022/02/27 03:35:09;;;;;;;34.57;14.93;;;;;;;4.29;87.75;100612.63;5027815;28;20033;-72
2022/02/27 03:37:35;;;;;;;44.70;15.77;;;;;;;4.25;88.02;100619.84;5027166;28;20227;-72
2022/02/27 03:40:00;;;;;;;35.47;16.30;;;;;;;4.33;87.47;100625.44;5027673;28;20029;-72
2022/02/27 03:42:26;;;;;;;34.47;15.53;;;;;;;4.30;88.11;100637.91;5011446;28;20254;-72
2022/02/27 03:44:51;;;;;;;35.67;15.30;;;;;;;4.39;87.77;100630.28;5027560;28;20037;-72
2022/02/27 03:47:16;;;;;;;35.90;15.93;;;;;;;4.41;87.44;100638.03;5027308;28;20033;-72
2022/02/27 03:49:42;;;;;;;44.95;17.75;;;;;;;4.37;87.87;100634.78;5028148;28;20034;-72
2022/02/27 03:52:07;;;;;;;34.07;16.00;;;;;;;4.35;88.16;100636.66;5009715;28;20033;-72
2022/02/27 03:54:33;;;;;;;37.87;16.83;;;;;;;4.22;89.01;100633.16;5027388;28;20192;-72
2022/02/27 03:56:58;;;;;;;34.37;16.80;;;;;;;4.34;88.92;100629.75;5026913;28;20037;-72
2022/02/27 03:59:23;;;;;;;43.83;18.03;;;;;;;4.28;89.31;100635.38;5028041;28;20275;-72
2022/02/27 04:01:49;;;;;;;40.55;17.02;;;;;;;4.35;89.28;100633.19;5025627;28;20104;-72
2022/02/27 04:04:14;;;;;;;40.93;17.70;;;;;;;4.29;90.09;100638.84;5011682;28;20025;-72
2022/02/27 04:06:40;;;;;;;41.27;18.00;;;;;;;4.22;90.86;100632.31;5025836;28;20038;-72
2022/02/27 04:09:06;;;;;;;44.00;18.50;;;;;;;4.20;91.71;100640.28;5028875;28;20033;-72
2022/02/27 04:11:31;;;;;;;43.80;18.52;;;;;;;4.14;92.74;100624.94;5028368;28;20041;-72
2022/02/27 04:13:57;;;;;;;40.40;18.90;;;;;;;4.15;94.34;100632.69;5026951;28;20036;-72
2022/02/27 04:16:23;;;;;;;47.17;20.20;;;;;;;4.15;95.03;100622.19;5029349;28;20692;-72
2022/02/27 04:18:48;;;;;;;47.07;19.03;;;;;;;4.16;96.26;100623.91;5027472;28;20329;-72
2022/02/27 04:21:14;;;;;;;56.83;21.40;;;;;;;4.27;96.09;100625.84;5025953;28;20070;-72
2022/02/27 04:23:39;;;;;;;54.70;21.33;;;;;;;4.15;97.16;100622.19;5025496;28;20101;-72
2022/02/27 04:26:05;;;;;;;50.87;21.57;;;;;;;4.23;97.71;100619.13;5026882;28;20048;-73
2022/02/27 04:28:30;;;;;;;50.33;23.57;;;;;;;4.26;98.30;100624.16;5028126;28;20029;-72
2022/02/27 04:30:56;;;;;;;50.30;22.47;;;;;;;4.34;98.18;100631.53;5026906;28;20049;-72
2022/02/27 04:33:21;;;;;;;53.80;21.50;;;;;;;4.39;97.97;100627.66;5026033;28;20034;-72
2022/02/27 04:35:47;;;;;;;50.93;21.50;;;;;;;4.29;98.28;100617.88;5028534;28;20068;-72
2022/02/27 04:38:13;;;;;;;50.57;23.80;;;;;;;4.26;99.20;100633.81;5025582;28;20223;-72
2022/02/27 04:40:38;;;;;;;51.70;23.00;;;;;;;4.29;99.82;100630.97;5025502;28;20037;-72
2022/02/27 04:43:04;;;;;;;53.33;24.20;;;;;;;4.28;100.00;100627.53;5029623;28;20033;-72
2022/02/27 04:45:29;;;;;;;52.40;22.30;;;;;;;4.21;100.00;100622.78;5025468;28;20234;-73
2022/02/27 04:47:55;;;;;;;59.23;24.80;;;;;;;4.15;100.00;100603.00;5027921;28;20124;-72
2022/02/27 04:50:21;;;;;;;62.97;24.70;;;;;;;4.07;100.00;100598.28;5026811;28;20396;-72
2022/02/27 04:52:47;;;;;;;62.77;26.73;;;;;;;4.08;100.00;100593.88;5024133;28;20025;-74
2022/02/27 04:55:12;;;;;;;62.20;24.77;;;;;;;4.05;100.00;100592.28;5028401;28;20239;-72
2022/02/27 04:57:38;;;;;;;58.27;25.37;;;;;;;3.99;100.00;100586.59;5025920;28;20057;-72
2022/02/27 05:00:07;;;;;;;57.17;24.13;;;;;;;4.09;100.00;100599.00;5026220;28;20320;-74
2022/02/27 05:02:33;;;;;;;58.20;24.07;;;;;;;4.08;100.00;100597.34;5026082;28;20101;-74
2022/02/27 05:04:58;;;;;;;60.87;25.80;;;;;;;4.03;100.00;100604.66;5027141;28;20135;-74
2022/02/27 05:07:24;;;;;;;62.57;25.23;;;;;;;3.99;100.00;100624.13;5026193;28;20378;-73
2022/02/27 05:09:49;;;;;;;65.37;26.33;;;;;;;4.08;100.00;100631.41;5025489;28;20053;-73
2022/02/27 05:12:14;;;;;;;59.93;25.90;;;;;;;4.14;100.00;100633.63;5026948;28;20033;-72
2022/02/27 05:14:40;;;;;;;65.67;25.93;;;;;;;4.17;100.00;100635.25;5024868;28;20040;-73
2022/02/27 05:17:05;;;;;;;62.63;26.57;;;;;;;4.13;100.00;100638.97;5024278;28;20114;-73
2022/02/27 05:19:31;;;;;;;64.27;26.43;;;;;;;4.18;100.00;100649.19;5023564;28;20132;-74
2022/02/27 05:21:56;;;;;;;59.53;25.13;;;;;;;4.17;100.00;100656.22;5025028;28;20289;-74
2022/02/27 05:24:22;;;;;;;61.43;27.67;;;;;;;4.18;100.00;100657.06;5022883;28;20033;-74
2022/02/27 05:26:47;;;;;;;64.47;27.77;;;;;;;4.15;100.00;100643.19;5023931;28;20080;-72
2022/02/27 05:29:13;;;;;;;60.53;25.93;;;;;;;3.94;100.00;100641.94;5005836;28;20040;-73
2022/02/27 05:31:40;;;;;;;64.23;26.53;;;;;;;4.27;100.00;100659.91;5023478;28;20056;-74
2022/02/27 05:34:06;;;;;;;63.47;27.03;;;;;;;4.19;100.00;100654.34;5027221;28;20033;-73
2022/02/27 05:36:31;;;;;;;56.95;24.45;;;;;;;4.13;100.00;100655.53;5024007;28;20041;-74
2022/02/27 05:38:57;;;;;;;56.27;24.53;;;;;;;4.11;100.00;100659.19;5023965;28;20382;-74
2022/02/27 05:41:22;;;;;;;61.00;24.40;;;;;;;4.13;100.00;100655.53;5022532;28;20036;-74
2022/02/27 05:43:48;;;;;;;58.77;25.40;;;;;;;4.07;100.00;100648.06;5024215;28;20018;-74
2022/02/27 05:46:13;;;;;;;56.60;23.93;;;;;;;4.09;100.00;100647.97;5023581;28;20042;-74
2022/02/27 05:48:38;;;;;;;56.23;24.13;;;;;;;4.22;100.00;100648.06;5023061;28;20034;-74
2022/02/27 05:51:04;;;;;;;63.43;24.87;;;;;;;4.24;100.00;100657.50;5023947;28;20037;-74
2022/02/27 05:53:29;;;;;;;57.30;24.93;;;;;;;4.38;100.00;100661.84;5023595;28;20322;-74
2022/02/27 05:55:57;;;;;;;63.93;26.20;;;;;;;4.34;100.00;100661.19;5024451;28;20040;-73
2022/02/27 05:58:24;;;;;;;66.10;26.27;;;;;;;4.46;100.00;100662.19;5022783;28;20225;-74
2022/02/27 06:00:50;;;;;;;63.47;26.83;;;;;;;4.39;100.00;100659.13;5023345;28;20097;-74
2022/02/27 06:03:16;;;;;;;69.70;29.27;;;;;;;4.26;100.00;100663.47;5023348;28;20033;-73
2022/02/27 06:05:43;;;;;;;66.40;27.87;;;;;;;4.20;100.00;100663.03;5025607;28;20677;-73
2022/02/27 06:08:08;;;;;;;66.35;26.17;;;;;;;4.30;100.00;100678.06;5026047;28;20025;-74
2022/02/27 06:10:34;;;;;;;70.40;28.80;;;;;;;4.09;100.00;100666.31;5009453;28;20017;-74
2022/02/27 06:12:59;;;;;;;64.43;27.97;;;;;;;4.16;100.00;100675.47;5027209;28;20048;-74
2022/02/27 06:15:25;;;;;;;62.08;28.15;;;;;;;4.24;100.00;100678.47;5026946;28;20041;-74
2022/02/27 06:17:50;;;;;;;64.68;26.88;;;;;;;4.28;100.00;100676.50;5027009;28;20038;-74
2022/02/27 06:20:16;;;;;;;57.67;27.27;;;;;;;4.44;99.70;100661.44;5025090;28;20093;-74
2022/02/27 06:22:46;;;;;;;62.53;26.08;;;;;;;4.42;98.43;100661.53;5026245;28;20100;-74
2022/02/27 06:25:15;;;;;;;61.15;25.45;;;;;;;4.54;98.43;100656.44;5028776;28;20041;-74
2022/02/27 06:27:43;;;;;;;54.37;25.83;;;;;;;4.52;98.94;100656.53;5029117;28;20104;-74
2022/02/27 06:30:23;;;;;;;58.13;25.40;;;;;;;4.35;98.80;100657.63;5030417;28;20049;-74
2022/02/27 06:32:50;;;;;;;54.83;25.37;;;;;;;4.41;98.58;100659.88;5030226;28;20045;-74
2022/02/27 06:35:19;;;;;;;57.90;25.45;;;;;;;4.36;98.42;100666.34;5030035;28;20048;-74
2022/02/27 06:37:44;;;;;;;65.60;27.00;;;;;;;4.58;97.97;100664.00;5012432;28;20022;-74
2022/02/27 06:40:10;;;;;;;65.30;27.80;;;;;;;4.64;97.07;100660.97;5029781;28;20105;-74
2022/02/27 06:42:38;;;;;;;66.15;26.58;;;;;;;4.69;96.91;100660.66;5031178;28;20279;-74
2022/02/27 06:45:04;;;;;;;56.25;23.80;;;;;;;4.86;95.65;100663.00;5035664;28;20078;-74
2022/02/27 06:47:30;;;;;;;50.95;22.45;;;;;;;4.66;95.73;100663.50;5030076;28;20064;-74
2022/02/27 06:49:56;;;;;;;44.08;20.77;;;;;;;4.73;94.91;100660.34;5030359;28;20063;-74
2022/02/27 06:52:21;;;;;;;40.08;20.92;;;;;;;4.74;93.85;100650.69;5028689;28;20040;-74
2022/02/27 06:54:47;;;;;;;47.13;21.67;;;;;;;4.89;93.54;100660.16;5030418;28;20346;-74
2022/02/27 06:57:12;;;;;;;33.78;16.67;;;;;;;4.71;92.95;100659.63;5028382;28;20101;-74
2022/02/27 06:59:38;;;;;;;39.13;20.10;;;;;;;4.80;93.50;100656.38;5028195;28;20029;-74
2022/02/27 07:02:03;;;;;;;46.15;19.35;;;;;;;4.76;92.92;100669.81;5029904;28;20094;-74
2022/02/27 07:04:29;;;;;;;50.43;20.73;;;;;;;4.84;93.14;100650.91;5028921;28;20099;-74
2022/02/27 07:06:54;;;;;;;39.83;19.77;;;;;;;4.82;92.49;100653.66;5010151;28;20221;-74
2022/02/27 07:09:21;;;;;;;42.90;18.85;;;;;;;4.89;92.40;100648.81;5030234;28;20223;-74
2022/02/27 07:11:47;;;;;;;33.88;17.90;;;;;;;4.79;91.64;100652.06;5027991;28;20045;-74
2022/02/27 07:14:13;;;;;;;41.20;19.33;;;;;;;4.77;91.50;100661.00;5029283;28;20037;-74
2022/02/27 07:16:39;;;;;;;48.45;21.92;;;;;;;4.94;92.40;100658.06;5027976;28;20100;-74
2022/02/27 07:19:04;;;;;;;46.55;20.00;;;;;;;4.88;91.47;100658.47;5029809;28;20288;-74
2022/02/27 07:21:33;;;;;;;47.88;20.98;;;;;;;4.95;91.45;100651.03;5028806;28;20239;-74
2022/02/27 07:23:59;;;;;;;48.33;21.63;;;;;;;4.92;92.22;100646.84;5009882;28;20022;-74
2022/02/27 07:26:24;;;;;;;49.13;21.95;;;;;;;4.94;90.99;100634.44;5030260;28;20470;-74
2022/02/27 07:28:50;;;;;;;39.08;18.88;;;;;;;4.88;91.48;100632.25;5030708;28;20324;-74
2022/02/27 07:31:15;;;;;;;38.87;18.67;;;;;;;5.05;91.20;100639.81;5028228;28;20030;-74
2022/02/27 07:33:41;;;;;;;46.90;22.85;;;;;;;5.08;91.92;100629.09;5029185;28;20033;-74
2022/02/27 07:36:06;;;;;;;49.05;22.08;;;;;;;5.40;91.82;100629.50;5027390;28;20037;-74
2022/02/27 07:38:32;;;;;;;44.30;20.95;;;;;;;5.50;89.97;100632.34;5017202;28;20021;-73
2022/02/27 07:40:57;;;;;;;46.05;21.67;;;;;;;5.22;90.79;100606.31;5028981;28;20042;-74
2022/02/27 07:43:23;;;;;;;45.10;22.85;;;;;;;5.33;90.10;100607.25;5028634;28;20025;-74
2022/02/27 07:45:49;;;;;;;47.80;21.48;;;;;;;5.32;89.76;100612.63;5028975;28;20033;-74
2022/02/27 07:48:14;;;;;;;44.72;20.30;;;;;;;5.21;90.00;100613.38;5029295;28;20204;-74
2022/02/27 07:50:40;;;;;;;47.55;23.60;;;;;;;5.40;89.66;100611.13;5027476;28;20075;-74
2022/02/27 07:53:06;;;;;;;54.88;24.23;;;;;;;5.43;88.58;100608.28;5011031;28;20237;-74
2022/02/27 07:55:31;;;;;;;63.78;27.90;;;;;;;5.34;89.18;100605.47;5027915;28;20037;-74
2022/02/27 07:57:57;;;;;;;52.22;25.55;;;;;;;5.38;90.04;100602.53;5028344;28;20104;-74
2022/02/27 08:00:22;;;;;;;44.85;23.70;;;;;;;5.38;89.23;100606.94;5029194;28;20116;-74
2022/02/27 08:02:48;;;;;;;52.75;24.48;;;;;;;5.50;89.63;100598.19;5027524;28;20033;-74
2022/02/27 08:05:13;;;;;;;50.65;22.15;;;;;;;5.38;90.02;100594.63;5029175;28;20333;-74
2022/02/27 08:07:39;;;;;;;40.42;19.10;;;;;;;5.23;90.07;100584.38;5027730;28;20049;-74
2022/02/27 08:10:05;;;;;;;42.33;20.17;;;;;;;5.33;89.70;100578.38;5027715;28;20208;-74
2022/02/27 08:12:31;;;;;;;41.15;20.58;;;;;;;5.19;89.31;100581.09;5029466;28;20044;-74
2022/02/27 08:14:57;;;;;;;46.90;21.95;;;;;;;5.30;90.06;100575.97;5027037;28;20041;-74
2022/02/27 08:17:22;;;;;;;46.15;21.92;;;;;;;5.29;90.85;100578.69;5027450;28;20202;-74
2022/02/27 08:19:48;;;;;;;48.13;22.75;;;;;;;5.23;90.91;100581.75;5028736;28;20040;-74
2022/02/27 08:22:14;;;;;;;39.80;19.88;;;;;;;5.27;90.06;100576.19;5009953;28;20026;-74
2022/02/27 08:24:41;;;;;;;48.78;23.13;;;;;;;5.27;90.90;100577.97;5029571;28;20040;-73
2022/02/27 08:27:06;;;;;;;44.97;22.20;;;;;;;5.26;91.56;100581.53;5027607;28;20076;-73
2022/02/27 08:29:32;;;;;;;40.05;20.65;;;;;;;5.16;91.44;100575.22;5027317;28;20029;-74
2022/02/27 08:31:58;;;;;;;48.83;22.55;;;;;;;5.32;90.95;100576.69;5027661;28;20057;-74
2022/02/27 08:34:27;;;;;;;40.38;20.67;;;;;;;5.38;90.04;100578.88;5028521;28;20513;-74
2022/02/27 08:36:53;;;;;;;49.10;22.00;;;;;;;5.55;91.33;100569.81;5026598;28;20033;-73
2022/02/27 08:39:19;;;;;;;44.35;21.20;;;;;;;5.53;90.60;100571.69;5027055;28;20080;-73
2022/02/27 08:41:45;;;;;;;48.90;23.08;;;;;;;5.52;90.62;100574.44;5028769;28;20318;-73
2022/02/27 08:44:10;;;;;;;49.60;23.15;;;;;;;5.44;91.33;100567.94;5026234;28;20049;-73
2022/02/27 08:46:36;;;;;;;49.67;23.90;;;;;;;5.60;91.47;100566.84;5027004;28;20350;-73
2022/02/27 08:49:02;;;;;;;50.80;23.88;;;;;;;5.41;92.46;100567.31;5028291;28;20253;-73
2022/02/27 08:51:27;;;;;;;48.08;23.90;;;;;;;5.32;93.87;100568.81;5026355;28;20262;-74
2022/02/27 08:53:53;;;;;;;53.42;24.50;;;;;;;5.41;93.90;100556.81;5026630;28;20029;-74
2022/02/27 08:56:19;;;;;;;48.90;23.70;;;;;;;5.32;94.21;100565.34;5027246;28;20061;-74
2022/02/27 08:58:44;;;;;;;47.28;23.08;;;;;;;5.23;94.77;100551.06;5027269;28;20204;-74
2022/02/27 09:01:10;;;;;;;56.20;26.88;;;;;;;5.50;95.12;100552.69;5026800;28;20242;-72
2022/02/27 09:03:35;;;;;;;56.15;26.80;;;;;;;5.61;96.01;100548.34;5027540;28;20091;-73
2022/02/27 09:06:00;;;;;;;38.83;21.77;;;;;;;5.63;95.15;100543.81;5026588;28;20323;-73
2022/02/27 09:08:26;;;;;;;49.55;25.27;;;;;;;5.69;93.11;100542.53;5025984;28;20029;-74
2022/02/27 09:10:51;;;;;;;49.25;25.30;;;;;;;5.82;95.54;100534.59;5028489;28;20037;-73
2022/02/27 09:13:17;;;;;;;46.38;22.77;;;;;;;5.80;94.86;100539.97;5027199;28;20048;-73
2022/02/27 09:15:43;;;;;;;109.80;39.60;;;;;;;5.86;93.15;100541.31;5017745;28;20219;-74
2022/02/27 09:18:08;;;;;;;44.50;21.25;;;;;;;5.92;93.73;100541.72;5026292;28;20029;-74
2022/02/27 09:20:34;;;;;;;43.60;21.10;;;;;;;5.90;95.32;100530.47;5027605;28;20029;-75
2022/02/27 09:22:59;;;;;;;41.80;21.70;;;;;;;6.04;97.38;100532.09;5028962;28;20227;-74
2022/02/27 09:25:24;;;;;;;42.45;22.05;;;;;;;5.87;96.48;100533.31;5007146;28;20223;-74
2022/02/27 09:27:50;;;;;;;41.88;21.15;;;;;;;5.80;98.75;100541.75;5027451;28;20334;-74
2022/02/27 09:30:15;;;;;;;36.13;18.67;;;;;;;5.50;98.50;100539.56;5026248;28;20137;-74
2022/02/27 09:32:41;;;;;;;46.30;21.48;;;;;;;5.38;100.00;100536.84;5027338;28;20049;-74
2022/02/27 09:35:08;;;;;;;45.17;22.63;;;;;;;5.31;100.00;100533.00;5027176;28;20046;-74
2022/02/27 09:37:34;;;;;;;41.42;20.52;;;;;;;5.27;100.00;100530.69;5009818;28;20353;-74
2022/02/27 09:40:01;;;;;;;37.15;18.10;;;;;;;5.13;100.00;100527.22;5027032;28;20033;-74
2022/02/27 09:42:32;;;;;;;40.00;20.45;;;;;;;5.09;100.00;100522.31;5026496;28;20025;-74
2022/02/27 09:44:59;;;;;;;37.00;19.13;;;;;;;5.03;100.00;100520.94;5026266;28;20096;-74
2022/02/27 09:47:25;;;;;;;43.30;20.20;;;;;;;5.06;100.00;100510.22;5027724;28;20049;-74
2022/02/27 09:49:51;;;;;;;47.63;22.57;;;;;;;5.15;100.00;100503.50;5025658;28;20044;-74
2022/02/27 09:52:18;;;;;;;46.47;22.30;;;;;;;5.29;100.00;100485.00;5024674;28;20037;-74
2022/02/27 09:54:44;;;;;;;43.07;20.47;;;;;;;5.28;100.00;100490.34;5027267;28;20032;-74
2022/02/27 09:57:15;;;;;;;43.10;22.23;;;;;;;5.32;100.00;100484.78;5025509;28;20064;-74
2022/02/27 09:59:41;;;;;;;43.78;21.88;;;;;;;5.42;100.00;100492.84;5027915;28;20022;-74
2022/02/27 10:02:06;;;;;;;41.25;21.88;;;;;;;5.45;100.00;100482.94;5030831;28;20038;-74
2022/02/27 10:04:40;;;;;;;40.75;21.65;;;;;;;5.51;100.00;100489.53;5030480;28;20196;-74
2022/02/27 10:07:10;;;;;;;44.30;19.77;;;;;;;5.46;100.00;100491.66;5028225;28;20057;-74
2022/02/27 10:09:37;;;;;;;39.55;20.20;;;;;;;5.57;100.00;100480.38;5030958;28;20068;-74
2022/02/27 10:12:20;;;;;;;40.65;21.80;;;;;;;5.58;100.00;100479.41;5028851;28;20029;-74
2022/02/27 10:15:06;;;;;;;45.33;22.95;;;;;;;5.65;100.00;100472.75;5030723;28;20072;-74
2022/02/27 10:17:39;;;;;;;43.07;21.77;;;;;;;5.53;100.00;100471.03;5021348;28;20025;-74
2022/02/27 10:20:16;;;;;;;43.58;22.92;;;;;;;5.50;100.00;100463.38;5030221;28;20033;-74
2022/02/27 10:22:43;;;;;;;57.40;29.35;;;;;;;5.53;100.00;100461.38;5030301;28;20044;-74
2022/02/27 10:25:19;;;;;;;58.65;31.15;;;;;;;5.60;100.00;100459.97;5031152;28;20096;-74
2022/02/27 10:27:53;;;;;;;50.10;22.60;;;;;;;5.36;100.00;100457.34;5030233;28;20041;-74
2022/02/27 10:30:18;;;;;;;46.72;24.35;;;;;;;5.44;100.00;100448.91;5031234;28;20060;-74
2022/02/27 10:32:57;;;;;;;49.40;27.25;;;;;;;5.50;100.00;100445.84;5030105;28;20304;-74
2022/02/27 10:35:44;;;;;;;55.35;26.33;;;;;;;5.38;100.00;100451.97;5011265;28;20323;-74
2022/02/27 10:38:55;;;;;;;51.33;26.75;;;;;;;5.56;100.00;100447.16;5029705;28;20049;-74
2022/02/27 10:41:22;;;;;;;54.80;27.00;;;;;;;5.52;100.00;100440.47;5029210;28;20053;-74
2022/02/27 10:43:49;;;;;;;49.97;24.38;;;;;;;5.40;100.00;100440.41;5031913;28;20235;-74
2022/02/27 10:46:20;;;;;;;50.78;24.25;;;;;;;5.38;100.00;100436.22;5029239;28;20296;-73
2022/02/27 10:48:49;;;;;;;51.53;25.23;;;;;;;5.29;100.00;100429.84;5030640;28;20080;-73
2022/02/27 10:51:15;;;;;;;50.40;26.77;;;;;;;5.42;100.00;100419.28;5028650;28;20045;-73
2022/02/27 10:53:45;;;;;;;59.92;28.40;;;;;;;5.35;100.00;100411.03;5029407;28;20048;-73
2022/02/27 10:56:13;;;;;;;49.25;24.27;;;;;;;5.52;100.00;100422.91;5028976;28;20101;-74
2022/02/27 10:58:44;;;;;;;56.33;26.30;;;;;;;5.46;100.00;100428.63;5030166;28;20030;-74
2022/02/27 11:01:21;;;;;;;57.97;26.43;;;;;;;5.53;100.00;100416.72;5030803;28;20084;-73
2022/02/27 11:03:48;;;;;;;53.97;23.25;;;;;;;5.50;100.00;100423.97;5030073;28;20774;-74
2022/02/27 11:06:14;;;;;;;43.72;22.95;;;;;;;5.46;100.00;100415.50;5028099;28;20041;-74
2022/02/27 11:08:41;;;;;;;42.92;21.38;;;;;;;5.39;100.00;100409.84;5028249;28;20029;-74
2022/02/27 11:11:07;;;;;;;46.42;21.98;;;;;;;5.61;100.00;100392.50;5027523;28;20037;-74